Time;durP1;ratioP1;P1;durP2;ratioP2;P2;SDS_P1;SDS_P2;PMS_P1;PMS_P2;Temp;Humidity;BMP_temperature;BMP_pressure;BME280_temperature;BME280_humidity;BME280_pressure;Samples;Min_cycle;Max_cycle;Signal;HPM_P1;HPM_P2
2022/05/04 00:00:36;;;;;;;1.85;1.73;;;;;;;30.39;20.00;98141.81;5063256;28;20110;-80
2022/05/04 00:03:02;;;;;;;3.97;2.03;;;;;;;30.29;20.26;98147.94;5059797;28;20032;-80
2022/05/04 00:05:29;;;;;;;2.60;1.67;;;;;;;30.18;19.88;98137.09;5048691;28;20051;-79
2022/05/04 00:07:55;;;;;;;2.33;2.00;;;;;;;29.87;20.00;98145.78;5070262;28;20042;-80
2022/05/04 00:10:22;;;;;;;2.20;1.92;;;;;;;30.08;19.95;98147.66;5066851;28;20029;-81
2022/05/04 00:12:48;;;;;;;2.03;1.75;;;;;;;29.93;20.33;98143.09;5069071;28;20770;-80
2022/05/04 00:15:14;;;;;;;3.08;2.33;;;;;;;29.81;20.46;98141.22;5064069;28;20041;-80
2022/05/04 00:17:40;;;;;;;2.10;1.88;;;;;;;29.99;20.11;98149.72;5062286;28;20399;-80
2022/05/04 00:20:07;;;;;;;2.75;1.83;;;;;;;30.04;19.95;98154.72;5062070;28;20033;-80
2022/05/04 00:22:33;;;;;;;2.95;2.15;;;;;;;29.98;20.27;98145.31;5066790;28;20031;-79
2022/05/04 00:25:00;;;;;;;2.85;2.10;;;;;;;29.94;19.92;98144.69;5069682;28;20247;-80
2022/05/04 00:27:26;;;;;;;3.17;2.03;;;;;;;30.08;20.08;98146.88;5066009;28;20029;-80
2022/05/04 00:29:52;;;;;;;2.63;2.30;;;;;;;30.03;19.90;98156.00;5065494;28;20486;-80
2022/05/04 00:32:18;;;;;;;2.45;2.05;;;;;;;30.14;20.05;98159.13;5063707;28;20309;-79
2022/05/04 00:34:44;;;;;;;3.75;2.30;;;;;;;30.31;19.85;98160.38;5065802;28;20033;-79
2022/05/04 00:37:10;;;;;;;3.92;2.33;;;;;;;30.46;19.75;98152.81;5065628;28;20051;-79
2022/05/04 00:39:37;;;;;;;2.25;1.83;;;;;;;30.14;19.86;98152.69;5067534;28;20113;-79
2022/05/04 00:42:15;;;;;;;2.58;2.38;;;;;;;29.55;20.11;98160.50;5066012;28;20123;-79
2022/05/04 00:44:42;;;;;;;2.97;2.28;;;;;;;29.39;20.68;98164.41;5066790;28;20028;-80
2022/05/04 00:47:09;;;;;;;2.55;2.17;;;;;;;29.56;20.36;98169.78;5063923;28;20044;-80
2022/05/04 00:49:36;;;;;;;2.03;1.65;;;;;;;29.73;20.23;98159.75;5064161;28;20044;-79
2022/05/04 00:52:04;;;;;;;3.17;1.73;;;;;;;29.87;19.98;98171.25;5062996;28;20062;-80
2022/05/04 00:54:31;;;;;;;3.58;2.45;;;;;;;29.92;19.99;98175.53;5064961;28;20042;-80
2022/05/04 00:56:58;;;;;;;3.70;2.50;;;;;;;29.38;20.68;98174.16;5063592;28;20036;-80
2022/05/04 00:59:25;;;;;;;3.47;2.63;;;;;;;29.32;20.62;98170.38;5065002;28;20028;-79
2022/05/04 01:01:51;;;;;;;2.08;1.85;;;;;;;29.64;20.26;98174.66;5068516;28;20039;-80
2022/05/04 01:04:18;;;;;;;1.65;1.55;;;;;;;29.85;20.00;98175.84;5065829;28;20112;-80
2022/05/04 01:06:48;;;;;;;3.53;1.85;;;;;;;29.97;19.72;98172.84;5065561;28;20040;-80
2022/05/04 01:09:15;;;;;;;3.45;2.40;;;;;;;29.88;19.92;98174.88;5065030;28;20112;-80
2022/05/04 01:11:42;;;;;;;2.85;2.15;;;;;;;29.29;20.51;98171.31;5068075;28;20041;-80
2022/05/04 01:14:10;;;;;;;2.47;2.05;;;;;;;29.40;20.11;98168.84;5061590;28;20041;-80
2022/05/04 01:16:38;;;;;;;3.72;2.38;;;;;;;29.27;20.53;98173.03;5047705;28;20036;-79
2022/05/04 01:19:06;;;;;;;2.47;1.98;;;;;;;29.42;20.26;98171.97;5066126;28;20505;-80
2022/05/04 01:21:33;;;;;;;4.57;2.22;;;;;;;29.61;19.96;98169.16;5064745;28;20044;-80
2022/05/04 01:24:00;;;;;;;3.13;2.47;;;;;;;29.69;19.82;98176.88;5068290;28;20429;-80
2022/05/04 01:26:27;;;;;;;3.90;2.20;;;;;;;29.65;20.26;98176.25;5065550;28;20045;-80
2022/05/04 01:28:53;;;;;;;3.10;2.17;;;;;;;29.46;20.83;98182.34;5063727;28;20079;-79
2022/05/04 01:31:19;;;;;;;2.30;1.80;;;;;;;29.47;20.67;98181.88;5065100;28;20032;-80
2022/05/04 01:33:45;;;;;;;2.15;1.85;;;;;;;29.66;20.18;98180.66;5064367;28;20033;-79
2022/05/04 01:36:11;;;;;;;2.50;1.85;;;;;;;29.63;20.20;98175.16;5067414;28;20040;-79
2022/05/04 01:38:37;;;;;;;2.10;1.90;;;;;;;29.76;19.85;98175.81;5060778;28;20028;-79
2022/05/04 01:41:04;;;;;;;2.80;2.15;;;;;;;29.74;20.33;98172.63;5065991;28;20482;-80
2022/05/04 01:43:30;;;;;;;1.80;1.63;;;;;;;29.60;20.26;98178.91;5063422;28;20150;-80
2022/05/04 01:45:56;;;;;;;2.65;1.83;;;;;;;29.40;20.45;98185.00;5065275;28;20032;-80
2022/05/04 01:48:23;;;;;;;2.15;1.70;;;;;;;29.18;20.47;98182.28;5063053;28;20024;-80
2022/05/04 01:50:49;;;;;;;2.30;1.52;;;;;;;29.24;20.30;98185.28;5060690;28;20055;-80
2022/05/04 01:53:15;;;;;;;2.30;1.85;;;;;;;29.36;20.12;98190.81;5066176;28;20039;-79
2022/05/04 01:55:42;;;;;;;2.88;1.88;;;;;;;29.49;20.24;98195.56;5064736;28;20552;-80
2022/05/04 01:58:08;;;;;;;2.17;1.98;;;;;;;29.56;20.20;98189.59;5067299;28;20024;-80
2022/05/04 02:00:34;;;;;;;2.60;2.20;;;;;;;29.63;20.02;98177.97;5064817;28;20525;-80
2022/05/04 02:03:00;;;;;;;3.25;2.45;;;;;;;29.71;19.76;98179.25;5064273;28;20071;-80
2022/05/04 02:05:27;;;;;;;2.35;2.13;;;;;;;29.76;19.74;98190.75;5063284;28;20046;-80
2022/05/04 02:07:54;;;;;;;2.88;2.42;;;;;;;29.73;20.04;98190.88;5066584;28;20033;-80
2022/05/04 02:10:20;;;;;;;2.95;2.63;;;;;;;28.91;20.98;98181.34;5061417;28;20043;-79
2022/05/04 02:12:46;;;;;;;3.55;2.47;;;;;;;28.37;21.48;98181.81;5065697;28;20044;-80
2022/05/04 02:15:12;;;;;;;3.67;2.38;;;;;;;28.34;21.79;98174.25;5067615;28;20032;-79
2022/05/04 02:17:39;;;;;;;3.03;2.08;;;;;;;28.73;21.26;98179.22;5065843;28;20040;-79
2022/05/04 02:20:06;;;;;;;3.30;2.38;;;;;;;28.93;21.37;98168.34;5061405;28;20161;-80
2022/05/04 02:22:32;;;;;;;4.88;2.30;;;;;;;29.13;20.76;98168.72;5063417;28;20021;-80
2022/05/04 02:24:58;;;;;;;2.95;2.33;;;;;;;29.24;20.65;98168.31;5063927;28;20098;-80
2022/05/04 02:27:24;;;;;;;3.08;2.47;;;;;;;29.25;20.78;98172.69;5065906;28;20032;-79
2022/05/04 02:29:50;;;;;;;2.78;2.38;;;;;;;29.20;20.55;98165.63;5066522;28;20117;-80
2022/05/04 02:32:16;;;;;;;3.55;2.42;;;;;;;29.35;20.56;98165.81;5063181;28;20024;-80
2022/05/04 02:40:12;;;;;;;2.53;2.33;;;;;;;27.39;23.10;98199.00;5061379;28;20090;-79
2022/05/04 02:42:39;;;;;;;2.85;2.50;;;;;;;26.92;23.30;98202.94;5061076;28;20115;-79
2022/05/04 02:45:06;;;;;;;2.83;2.63;;;;;;;26.95;23.21;98207.69;5065092;28;20219;-79
2022/05/04 02:47:32;;;;;;;3.92;2.72;;;;;;;26.45;23.81;98216.81;5063983;28;20079;-79
2022/05/04 02:49:58;;;;;;;2.63;2.42;;;;;;;26.60;24.19;98227.22;5064382;28;20143;-79
2022/05/04 02:52:24;;;;;;;4.25;3.30;;;;;;;27.28;23.86;98221.06;5063690;28;20386;-79
2022/05/04 02:54:50;;;;;;;4.18;2.78;;;;;;;27.99;22.64;98215.88;5062975;28;20035;-79
2022/05/04 02:57:16;;;;;;;2.67;2.10;;;;;;;28.48;21.36;98207.63;5061432;28;20036;-79
2022/05/04 02:59:42;;;;;;;3.60;2.55;;;;;;;28.53;21.01;98210.66;5060170;28;20047;-79
2022/05/04 03:02:27;;;;;;;3.38;2.58;;;;;;;27.85;21.88;98216.34;5065176;28;20024;-79
2022/05/04 03:04:54;;;;;;;3.38;3.08;;;;;;;27.06;23.28;98217.38;5047781;28;20060;-79
2022/05/04 03:07:20;;;;;;;3.97;2.78;;;;;;;26.52;23.91;98233.50;5066215;28;20040;-79
2022/05/04 03:09:46;;;;;;;3.22;2.38;;;;;;;26.49;24.33;98240.81;5065166;28;20389;-79
2022/05/04 03:12:12;;;;;;;3.65;2.78;;;;;;;27.20;23.36;98233.84;5064496;28;20036;-80
2022/05/04 03:14:38;;;;;;;4.40;2.58;;;;;;;27.68;22.65;98234.72;5058997;28;20031;-79
2022/05/04 03:17:05;;;;;;;4.32;3.38;;;;;;;27.87;22.89;98234.41;5057687;28;20032;-79
2022/05/04 03:19:31;;;;;;;4.22;2.80;;;;;;;28.22;22.14;98240.06;5062272;28;20033;-80
2022/05/04 03:21:57;;;;;;;3.50;2.80;;;;;;;28.45;21.36;98234.75;5064963;28;20040;-79
2022/05/04 03:24:23;;;;;;;3.50;2.65;;;;;;;28.40;21.66;98238.16;5064347;28;20031;-79
2022/05/04 03:26:49;;;;;;;5.35;3.05;;;;;;;28.08;21.37;98236.50;5063093;28;20038;-79
2022/05/04 03:29:15;;;;;;;3.70;2.40;;;;;;;28.27;21.49;98233.81;5062326;28;20029;-79
2022/05/04 03:31:41;;;;;;;3.10;2.22;;;;;;;28.68;21.18;98231.47;5063109;28;20058;-79
2022/05/04 03:34:07;;;;;;;3.22;2.40;;;;;;;28.39;21.17;98230.94;5057938;28;20047;-79
2022/05/04 03:36:37;;;;;;;2.90;2.58;;;;;;;28.39;20.89;98230.94;5063903;28;20038;-79
2022/05/04 03:39:07;;;;;;;3.33;2.67;;;;;;;28.19;21.09;98233.31;5067327;28;20029;-79
2022/05/04 03:41:33;;;;;;;2.55;2.35;;;;;;;28.31;20.93;98228.88;5049252;28;20482;-79
2022/05/04 03:44:00;;;;;;;3.60;2.42;;;;;;;28.50;20.73;98227.72;5069559;28;20071;-80
2022/05/04 03:46:28;;;;;;;3.60;2.35;;;;;;;28.58;20.58;98226.22;5062742;28;20043;-79
2022/05/04 03:48:58;;;;;;;2.63;2.03;;;;;;;28.26;21.16;98220.97;5066519;28;20048;-79
2022/05/04 03:51:25;;;;;;;2.78;2.28;;;;;;;28.13;21.23;98228.69;5063703;28;20040;-79
2022/05/04 03:53:53;;;;;;;4.03;2.70;;;;;;;27.90;21.71;98225.03;5061124;28;20063;-79
2022/05/04 03:56:20;;;;;;;4.85;2.42;;;;;;;27.84;21.73;98214.78;5068089;28;20040;-79
2022/05/04 03:58:46;;;;;;;4.95;3.28;;;;;;;27.63;21.87;98210.69;5049662;28;20033;-79
2022/05/04 04:01:13;;;;;;;2.20;2.00;;;;;;;27.76;21.75;98222.72;5068549;28;20028;-79
2022/05/04 04:03:39;;;;;;;2.90;2.28;;;;;;;28.16;21.90;98224.97;5050699;28;20115;-79
2022/05/04 04:06:06;;;;;;;2.03;1.83;;;;;;;28.22;21.33;98235.22;5067501;28;20490;-79
2022/05/04 04:08:32;;;;;;;4.53;2.83;;;;;;;28.08;21.28;98241.38;5069321;28;20033;-79
2022/05/04 04:10:59;;;;;;;2.65;1.70;;;;;;;28.28;21.06;98255.97;5067450;28;20033;-79
2022/05/04 04:13:26;;;;;;;2.30;2.03;;;;;;;28.50;20.65;98262.41;5065771;28;20033;-80
2022/05/04 04:15:52;;;;;;;2.42;1.92;;;;;;;28.66;20.47;98265.06;5069268;28;20060;-79
2022/05/04 04:18:20;;;;;;;2.97;2.38;;;;;;;28.90;20.35;98267.41;5069746;28;20040;-79
2022/05/04 04:23:42;;;;;;;3.20;2.33;;;;;;;29.74;19.85;98260.38;5043783;28;20051;-79
2022/05/04 04:26:09;;;;;;;2.78;2.25;;;;;;;29.92;19.73;98266.13;5066657;28;20055;-79
2022/05/04 04:28:38;;;;;;;3.25;1.60;;;;;;;30.06;19.59;98265.47;5066940;28;20043;-79
2022/05/04 04:31:04;;;;;;;2.35;2.15;;;;;;;30.27;19.40;98267.38;5065033;28;20068;-79
2022/05/04 04:33:30;;;;;;;2.33;1.90;;;;;;;30.45;19.36;98267.44;5062781;28;20048;-79
2022/05/04 04:35:57;;;;;;;3.17;2.45;;;;;;;30.51;19.46;98276.88;5066925;28;20086;-79
2022/05/04 04:38:24;;;;;;;2.78;2.10;;;;;;;30.61;19.42;98275.59;5065954;28;20039;-79
2022/05/04 04:40:50;;;;;;;3.00;2.08;;;;;;;30.61;19.53;98281.28;5066270;28;20064;-79
2022/05/04 04:43:17;;;;;;;3.92;2.10;;;;;;;30.63;19.87;98289.28;5063182;28;20036;-79
2022/05/04 04:45:47;;;;;;;2.53;2.00;;;;;;;30.26;19.99;98285.66;5043281;28;20029;-80
2022/05/04 04:48:16;;;;;;;2.63;2.40;;;;;;;30.50;19.83;98285.84;5064200;28;20064;-81
2022/05/04 04:50:42;;;;;;;2.03;1.83;;;;;;;30.42;19.84;98285.38;5063568;28;20041;-80
2022/05/04 04:53:08;;;;;;;2.22;1.98;;;;;;;30.63;19.75;98284.41;5064090;28;20036;-79
2022/05/04 04:55:34;;;;;;;2.33;1.90;;;;;;;30.80;19.52;98284.88;5061103;28;20041;-79
2022/05/04 04:58:01;;;;;;;2.50;2.03;;;;;;;30.78;19.91;98281.72;5063185;28;20555;-79
2022/05/04 05:00:28;;;;;;;2.10;2.00;;;;;;;30.73;20.00;98282.34;5061541;28;20048;-78
2022/05/04 05:02:54;;;;;;;2.88;2.20;;;;;;;29.78;21.21;98281.66;5062835;28;20024;-79
2022/05/04 05:05:20;;;;;;;2.38;2.08;;;;;;;29.12;21.81;98293.59;5046598;28;20390;-79
2022/05/04 05:07:46;;;;;;;2.45;2.10;;;;;;;28.90;22.09;98296.47;5062928;28;20086;-79
2022/05/04 05:10:12;;;;;;;2.97;2.58;;;;;;;28.25;22.46;98309.75;5064533;28;20115;-78
2022/05/04 05:12:38;;;;;;;2.90;2.70;;;;;;;25.96;25.46;98314.63;5063313;28;20135;-79
2022/05/04 05:17:49;;;;;;;4.82;4.30;;;;;;;25.13;26.32;98314.22;5064165;28;20528;-79
2022/05/04 05:20:16;;;;;;;5.32;3.38;;;;;;;26.54;24.69;98309.88;5065661;28;20164;-78
2022/05/04 05:22:42;;;;;;;5.57;3.78;;;;;;;26.49;24.02;98313.25;5063090;28;20075;-82
2022/05/04 05:25:08;;;;;;;4.85;3.83;;;;;;;26.59;23.62;98309.34;5063352;28;20040;-78
2022/05/04 05:27:34;;;;;;;5.30;3.10;;;;;;;27.45;23.13;98306.38;5062276;28;20115;-79
2022/05/04 05:30:00;;;;;;;4.15;3.20;;;;;;;27.94;22.28;98293.44;5065605;28;20090;-79
2022/05/04 05:32:26;;;;;;;4.93;2.65;;;;;;;28.59;21.84;98290.00;5065140;28;20477;-79
2022/05/04 05:34:53;;;;;;;4.05;2.60;;;;;;;29.21;21.37;98286.00;5065234;28;20032;-79
2022/05/04 05:37:20;;;;;;;3.97;2.58;;;;;;;29.80;20.28;98290.44;5048406;28;20052;-79
2022/05/04 05:39:47;;;;;;;3.47;2.38;;;;;;;29.55;21.14;98289.88;5064947;28;20375;-79
2022/05/04 05:42:13;;;;;;;5.43;2.80;;;;;;;30.03;20.70;98289.91;5064114;28;20035;-80
2022/05/04 05:44:39;;;;;;;5.13;2.20;;;;;;;30.57;20.02;98289.13;5065948;28;20103;-80
2022/05/04 05:47:06;;;;;;;7.05;2.50;;;;;;;30.71;19.80;98297.00;5064615;28;20056;-80
2022/05/04 05:49:32;;;;;;;3.38;2.50;;;;;;;30.75;20.31;98294.00;5064932;28;20040;-79
2022/05/04 05:51:58;;;;;;;3.97;2.63;;;;;;;30.76;19.89;98304.88;5064981;28;20064;-80
2022/05/04 05:54:24;;;;;;;3.83;2.88;;;;;;;30.87;19.73;98295.88;5064858;28;20059;-80
2022/05/04 05:56:51;;;;;;;3.42;2.67;;;;;;;30.84;20.62;98293.19;5066028;28;20040;-80
2022/05/04 05:59:17;;;;;;;4.00;3.45;;;;;;;30.41;19.76;98297.94;5063995;28;20032;-80
2022/05/04 06:01:43;;;;;;;2.65;2.00;;;;;;;30.70;20.89;98295.44;5060909;28;20493;-80
2022/05/04 06:04:10;;;;;;;3.97;3.08;;;;;;;30.33;20.58;98284.59;5063351;28;20021;-80
2022/05/04 06:06:36;;;;;;;3.72;2.42;;;;;;;30.60;20.10;98290.22;5064567;28;20109;-80
2022/05/04 06:09:03;;;;;;;12.15;3.13;;;;;;;29.85;20.13;98286.25;5065439;28;20111;-80
2022/05/04 06:11:31;;;;;;;2.90;2.10;;;;;;;30.24;20.72;98288.19;5066728;28;20470;-80
2022/05/04 06:13:57;;;;;;;3.58;2.35;;;;;;;30.56;19.76;98284.75;5066548;28;20505;-80
2022/05/04 06:16:23;;;;;;;2.38;2.13;;;;;;;30.96;19.42;98304.41;5066644;28;20389;-79
2022/05/04 06:18:49;;;;;;;4.47;2.55;;;;;;;31.07;19.25;98292.53;5063510;28;20028;-80
2022/05/04 06:21:16;;;;;;;2.88;2.40;;;;;;;31.13;19.42;98297.13;5062137;28;20041;-80
2022/05/04 06:23:42;;;;;;;3.05;1.70;;;;;;;31.11;19.16;98290.34;5065442;28;20025;-80
2022/05/04 06:26:08;;;;;;;3.85;2.33;;;;;;;30.77;19.97;98300.00;5065179;28;20425;-80
2022/05/04 06:28:34;;;;;;;2.67;2.10;;;;;;;31.17;19.34;98305.44;5066041;28;20470;-80
2022/05/04 06:36:41;;;;;;;4.05;2.22;;;;;;;31.72;19.48;98309.66;5050217;28;20141;-80
2022/05/04 06:39:11;;;;;;;3.88;2.85;;;;;;;30.46;20.12;98305.84;5059058;28;20029;-80
2022/05/04 06:41:38;;;;;;;3.20;2.75;;;;;;;30.43;20.07;98303.97;5063003;28;20524;-80
2022/05/04 06:44:04;;;;;;;3.88;3.13;;;;;;;31.07;20.40;98304.69;5063079;28;20039;-80
2022/05/04 06:46:31;;;;;;;4.53;3.45;;;;;;;31.05;20.40;98309.25;5065544;28;20386;-80
2022/05/04 06:48:57;;;;;;;2.50;2.20;;;;;;;31.03;19.89;98309.75;5045985;28;20024;-80
2022/05/04 06:51:24;;;;;;;3.85;2.50;;;;;;;31.72;19.39;98315.34;5063916;28;20031;-80
2022/05/04 06:53:50;;;;;;;2.22;1.90;;;;;;;32.44;19.03;98310.50;5064106;28;20047;-80
2022/05/04 06:56:16;;;;;;;3.60;2.00;;;;;;;32.91;18.46;98306.78;5066564;28;20127;-80
2022/05/04 06:58:44;;;;;;;3.88;2.13;;;;;;;32.89;19.38;98310.09;5064692;28;20043;-81
2022/05/04 07:01:12;;;;;;;3.75;2.63;;;;;;;32.33;18.84;98299.66;5065148;28;20452;-80
2022/05/04 07:03:38;;;;;;;3.90;1.92;;;;;;;32.42;18.52;98307.31;5067291;28;20039;-81
2022/05/04 07:06:05;;;;;;;2.30;2.03;;;;;;;32.81;18.64;98297.56;5032466;28;20025;-80
2022/05/04 07:08:31;;;;;;;2.85;2.38;;;;;;;33.18;18.32;98304.47;5065464;28;20049;-80
2022/05/04 07:10:58;;;;;;;2.30;1.75;;;;;;;33.21;17.50;98306.31;5066554;28;20037;-80
2022/05/04 07:13:24;;;;;;;2.17;1.65;;;;;;;32.55;18.89;98302.22;5062444;28;20048;-80
2022/05/04 07:15:50;;;;;;;2.30;2.10;;;;;;;31.35;18.83;98306.16;5068339;28;20052;-81
2022/05/04 07:18:16;;;;;;;2.67;2.05;;;;;;;30.65;20.47;98309.44;5070076;28;20059;-81
2022/05/04 07:20:42;;;;;;;2.25;2.05;;;;;;;30.23;21.28;98317.75;5066653;28;20693;-80
2022/05/04 07:23:08;;;;;;;2.72;2.33;;;;;;;29.39;21.22;98308.69;5069267;28;20036;-81
2022/05/04 07:25:34;;;;;;;3.97;2.90;;;;;;;30.12;20.00;98313.81;5070215;28;20482;-80
2022/05/04 07:28:01;;;;;;;3.20;2.53;;;;;;;30.22;20.58;98313.38;5068408;28;20561;-79
2022/05/04 07:30:27;;;;;;;4.75;2.10;;;;;;;30.86;19.27;98321.84;5070369;28;20070;-79
2022/05/04 07:32:53;;;;;;;1.95;1.75;;;;;;;31.12;18.75;98308.91;5069944;28;20036;-79
2022/05/04 07:35:19;;;;;;;2.08;1.63;;;;;;;31.70;17.82;98315.03;5067082;28;20437;-81
2022/05/04 07:37:45;;;;;;;2.40;1.92;;;;;;;32.23;18.36;98312.38;5067697;28;20098;-78
2022/05/04 07:42:56;;;;;;;3.67;2.65;;;;;;;30.66;18.94;98317.50;5073039;28;20047;-78
2022/05/04 07:45:22;;;;;;;2.58;2.38;;;;;;;31.25;19.45;98312.38;5071028;28;20052;-78
2022/05/04 07:47:48;;;;;;;4.13;2.20;;;;;;;32.08;18.19;98311.53;5071240;28;20044;-77
2022/05/04 07:50:14;;;;;;;2.08;1.88;;;;;;;32.65;17.34;98321.53;5069755;28;20029;-78
2022/05/04 07:52:41;;;;;;;12.77;2.22;;;;;;;32.99;17.77;98314.44;5073107;28;20082;-78
2022/05/04 07:55:10;;;;;;;2.72;2.50;;;;;;;31.84;18.11;98325.69;5071760;28;20028;-78
2022/05/04 07:57:36;;;;;;;2.63;2.03;;;;;;;32.74;17.65;98315.75;5072185;28;20021;-78
2022/05/04 08:05:39;;;;;;;2.28;2.08;;;;;;;32.92;17.16;98311.19;5066649;28;20146;-78
2022/05/04 08:08:05;;;;;;;2.72;1.70;;;;;;;33.22;17.36;98324.97;5069047;28;20028;-78
2022/05/04 08:10:31;;;;;;;2.67;1.80;;;;;;;31.90;18.48;98334.34;5052141;28;20048;-79
2022/05/04 08:12:58;;;;;;;2.10;1.90;;;;;;;32.89;18.22;98321.47;5070190;28;20143;-79
2022/05/04 08:15:25;;;;;;;2.97;2.30;;;;;;;32.23;17.14;98322.97;5070516;28;20112;-79
2022/05/04 08:17:51;;;;;;;3.00;2.10;;;;;;;32.51;16.89;98318.69;5067748;28;20036;-79
2022/05/04 08:20:17;;;;;;;1.67;1.55;;;;;;;32.97;17.66;98316.97;5070418;28;20039;-79
2022/05/04 08:22:43;;;;;;;1.92;1.70;;;;;;;31.09;18.09;98329.72;5067832;28;20056;-79
2022/05/04 08:25:10;;;;;;;3.15;2.13;;;;;;;31.23;18.12;98329.84;5068254;28;20040;-79
2022/05/04 08:27:36;;;;;;;2.10;1.73;;;;;;;32.09;18.37;98328.09;5067183;28;20041;-79
2022/05/04 08:30:02;;;;;;;1.48;1.38;;;;;;;31.70;17.45;98329.22;5071887;28;20489;-79
2022/05/04 08:32:29;;;;;;;1.88;1.05;;;;;;;32.89;17.01;98324.31;5067932;28;20029;-79
2022/05/04 08:34:56;;;;;;;1.42;1.33;;;;;;;32.98;16.54;98323.47;5070152;28;20032;-79
2022/05/04 08:37:22;;;;;;;1.75;1.25;;;;;;;32.97;16.02;98319.03;5072763;28;20033;-79
2022/05/04 08:39:49;;;;;;;1.58;1.30;;;;;;;33.74;17.32;98319.63;5070264;28;20105;-79
2022/05/04 08:42:16;;;;;;;2.05;1.52;;;;;;;33.75;16.06;98318.34;5070355;28;20492;-79
2022/05/04 08:44:47;;;;;;;1.67;1.58;;;;;;;33.09;16.01;98315.94;5054164;28;20037;-79
2022/05/04 08:47:19;;;;;;;2.30;2.15;;;;;;;32.18;17.50;98318.75;5072074;28;20523;-79
2022/05/04 08:49:47;;;;;;;1.40;1.30;;;;;;;31.66;17.56;98320.09;5066935;28;20111;-79
2022/05/04 08:52:14;;;;;;;1.75;1.58;;;;;;;31.99;17.13;98320.91;5068796;28;20082;-79
2022/05/04 08:54:42;;;;;;;1.55;1.40;;;;;;;32.65;16.68;98321.53;5053506;28;20477;-79
2022/05/04 08:57:08;;;;;;;1.10;1.00;;;;;;;33.63;15.11;98313.75;5069217;28;20059;-79
2022/05/04 08:59:35;;;;;;;1.83;1.30;;;;;;;33.09;15.79;98318.78;5073482;28;20029;-79
2022/05/04 09:02:01;;;;;;;1.98;1.23;;;;;;;33.56;15.33;98311.31;5071454;28;20040;-79
2022/05/04 09:04:29;;;;;;;1.08;0.98;;;;;;;34.34;14.86;98319.72;5072756;28;20371;-79
2022/05/04 09:06:56;;;;;;;1.00;0.90;;;;;;;34.88;15.39;98320.91;5065861;28;20087;-79
2022/05/04 09:09:22;;;;;;;2.22;1.00;;;;;;;35.11;15.22;98314.16;5066480;28;20103;-79
2022/05/04 09:11:48;;;;;;;1.92;1.17;;;;;;;34.04;15.40;98321.13;5070125;28;20024;-79
2022/05/04 09:14:19;;;;;;;1.20;1.10;;;;;;;34.29;14.59;98319.63;5069301;28;20048;-79
2022/05/04 09:16:49;;;;;;;1.85;1.20;;;;;;;34.25;14.87;98321.91;5064029;28;20551;-79
2022/05/04 09:19:20;;;;;;;1.35;1.05;;;;;;;34.66;16.02;98314.94;5070108;28;20076;-79
2022/05/04 09:21:47;;;;;;;1.50;1.13;;;;;;;34.97;15.30;98317.09;5069095;28;20090;-79
2022/05/04 09:24:25;;;;;;;1.73;1.10;;;;;;;34.39;14.85;98310.44;5068020;28;20478;-79
2022/05/04 09:26:56;;;;;;;2.83;1.00;;;;;;;34.63;14.15;98313.91;5072224;28;20047;-79
2022/05/04 09:29:33;;;;;;;1.10;1.00;;;;;;;33.99;14.76;98316.09;5061989;28;20052;-79
2022/05/04 09:32:00;;;;;;;1.15;0.80;;;;;;;33.34;16.20;98318.19;5071129;28;20077;-81
2022/05/04 09:34:35;;;;;;;1.85;1.02;;;;;;;33.08;16.11;98313.56;5067844;28;20071;-80
2022/05/04 09:45:40;;;;;;;1.38;1.20;;;;;;;32.86;16.10;98310.31;5066724;28;20095;-81
2022/05/04 09:48:06;;;;;;;1.75;1.00;;;;;;;33.85;14.67;98314.09;5070697;28;20033;-80
2022/05/04 09:50:39;;;;;;;3.25;2.22;;;;;;;30.07;17.38;98315.22;5064397;28;20037;-82
2022/05/04 09:53:06;;;;;;;2.33;1.90;;;;;;;29.65;18.51;98322.63;5070458;28;20036;-82
2022/05/04 09:55:33;;;;;;;1.30;1.20;;;;;;;31.49;16.53;98313.25;5072807;28;20028;-82
2022/05/04 09:57:59;;;;;;;1.67;1.50;;;;;;;31.47;16.43;98312.13;5071429;28;20028;-81
2022/05/04 10:00:27;;;;;;;1.38;1.27;;;;;;;32.69;15.58;98304.28;5074076;28;20028;-80
2022/05/04 10:02:54;;;;;;;1.30;1.20;;;;;;;32.99;15.55;98305.91;5068569;28;20032;-81
2022/05/04 10:05:21;;;;;;;1.88;1.55;;;;;;;31.79;16.50;98312.16;5071977;28;20397;-80
2022/05/04 10:07:51;;;;;;;1.58;1.08;;;;;;;32.67;15.41;98298.31;5068762;28;20048;-80
2022/05/04 10:10:19;;;;;;;0.88;0.88;;;;;;;34.02;14.84;98292.31;5068959;28;20032;-81
2022/05/04 10:12:45;;;;;;;1.30;1.20;;;;;;;35.04;14.11;98300.34;5073484;28;20521;-80
2022/05/04 10:15:14;;;;;;;1.13;1.02;;;;;;;34.89;14.50;98296.78;5073216;28;20032;-80
2022/05/04 10:18:03;;;;;;;1.20;1.02;;;;;;;34.71;14.31;98292.19;5072923;28;20114;-81
2022/05/04 10:20:40;;;;;;;1.45;1.35;;;;;;;33.75;15.00;98289.88;5073619;28;20122;-81
2022/05/04 10:23:19;;;;;;;1.38;1.27;;;;;;;32.85;14.40;98297.34;5068013;28;20032;-82
2022/05/04 10:25:45;;;;;;;2.28;1.25;;;;;;;31.42;16.14;98300.19;5070030;28;20501;-81
2022/05/04 10:28:14;;;;;;;1.38;0.98;;;;;;;32.56;15.28;98296.03;5058661;28;20599;-81
2022/05/04 10:30:58;;;;;;;0.80;0.80;;;;;;;33.81;14.35;98296.41;5072212;28;20107;-81
2022/05/04 10:33:35;;;;;;;1.38;1.10;;;;;;;32.71;15.50;98296.06;5072469;28;20029;-81
2022/05/04 10:36:16;;;;;;;1.67;0.98;;;;;;;32.27;15.88;98284.56;5064114;28;20039;-82
2022/05/04 10:38:50;;;;;;;1.20;1.02;;;;;;;33.40;15.82;98281.25;5062529;28;20037;-82
2022/05/04 10:41:31;;;;;;;1.25;1.15;;;;;;;32.25;16.82;98286.31;5064024;28;20094;-81
2022/05/04 10:43:57;;;;;;;1.10;1.00;;;;;;;32.50;16.15;98280.13;5066487;28;20033;-82
2022/05/04 10:46:24;;;;;;;1.48;1.38;;;;;;;32.80;16.06;98276.06;5061019;28;20431;-82
2022/05/04 10:49:03;;;;;;;1.17;1.08;;;;;;;32.83;15.79;98286.47;5061201;28;20553;-82
2022/05/04 10:51:37;;;;;;;1.13;1.02;;;;;;;33.37;15.73;98273.72;5065039;28;20116;-82
2022/05/04 10:54:12;;;;;;;0.90;0.90;;;;;;;33.52;14.89;98276.50;5067418;28;20032;-81
2022/05/04 10:56:44;;;;;;;1.40;1.30;;;;;;;32.14;15.77;98269.06;5064235;28;20376;-81
2022/05/04 10:59:11;;;;;;;1.17;0.90;;;;;;;33.24;15.74;98262.63;5064053;28;20120;-82
2022/05/04 11:01:39;;;;;;;1.75;1.42;;;;;;;33.58;15.18;98266.84;5069067;28;20060;-84
2022/05/04 11:04:11;;;;;;;2.83;1.20;;;;;;;34.24;14.18;98263.34;5068062;28;20043;-82
2022/05/04 11:06:41;;;;;;;1.10;1.00;;;;;;;34.43;14.60;98265.38;5066989;28;20039;-81
2022/05/04 11:09:09;;;;;;;1.08;1.00;;;;;;;34.12;16.34;98256.72;5069343;28;20111;-82
2022/05/04 11:11:37;;;;;;;1.55;1.45;;;;;;;32.78;15.24;98272.91;5065424;28;20060;-82
2022/05/04 11:14:05;;;;;;;1.33;1.23;;;;;;;33.24;15.09;98256.16;5071555;28;20047;-82
2022/05/04 11:16:32;;;;;;;2.28;1.45;;;;;;;33.61;14.50;98259.38;5075789;28;20032;-82
2022/05/04 11:18:59;;;;;;;1.15;1.05;;;;;;;34.99;14.61;98263.13;5072755;28;20056;-82
2022/05/04 11:21:28;;;;;;;2.85;1.08;;;;;;;34.58;14.91;98256.78;5072804;28;20421;-82
2022/05/04 11:23:56;;;;;;;1.20;1.05;;;;;;;34.79;13.77;98255.44;5071904;28;20480;-81
2022/05/04 11:26:37;;;;;;;3.10;1.65;;;;;;;34.11;14.30;98258.00;5072523;28;20041;-81
2022/05/04 11:29:09;;;;;;;1.13;1.02;;;;;;;34.75;14.46;98249.19;5072288;28;20497;-82
2022/05/04 11:31:36;;;;;;;1.33;1.23;;;;;;;34.99;13.93;98260.28;5071906;28;20494;-81
2022/05/04 11:34:03;;;;;;;1.33;1.20;;;;;;;34.15;14.96;98255.72;5053253;28;20135;-81
2022/05/04 11:36:29;;;;;;;3.13;1.20;;;;;;;33.63;14.41;98259.66;5071862;28;20070;-82
2022/05/04 11:38:55;;;;;;;1.35;1.17;;;;;;;33.56;14.67;98263.66;5072148;28;20060;-81
2022/05/04 11:41:21;;;;;;;2.45;1.02;;;;;;;31.97;16.28;98269.47;5071794;28;20495;-81
2022/05/04 11:43:49;;;;;;;1.70;1.40;;;;;;;31.94;15.54;98270.41;5072393;28;20114;-81
2022/05/04 11:46:16;;;;;;;1.17;1.00;;;;;;;32.78;14.87;98260.75;5053082;28;20036;-81
2022/05/04 11:48:44;;;;;;;1.35;0.95;;;;;;;33.37;14.49;98260.25;5072063;28;20036;-80
2022/05/04 11:51:13;;;;;;;1.25;1.15;;;;;;;32.49;15.32;98258.63;5072471;28;20493;-80
2022/05/04 11:53:39;;;;;;;2.03;1.17;;;;;;;32.30;15.66;98248.72;5056547;28;20044;-80
2022/05/04 11:56:07;;;;;;;1.27;0.80;;;;;;;32.21;15.69;98257.31;5043907;28;20020;-81
2022/05/04 11:58:34;;;;;;;1.38;1.27;;;;;;;31.83;16.06;98255.19;5072156;28;20043;-81
2022/05/04 12:01:03;;;;;;;1.30;1.20;;;;;;;31.61;16.18;98254.66;5075071;28;20135;-80
2022/05/04 12:03:31;;;;;;;2.05;1.33;;;;;;;31.56;16.08;98243.97;5073682;28;20102;-81
2022/05/04 12:06:01;;;;;;;1.90;1.13;;;;;;;32.80;15.24;98247.63;5068281;28;20029;-81
2022/05/04 12:08:28;;;;;;;1.05;0.93;;;;;;;33.73;14.39;98244.78;5072811;28;20047;-80